Time;durP1;ratioP1;P1;durP2;ratioP2;P2;SDS_P1;SDS_P2;PMS_P1;PMS_P2;Temp;Humidity;BMP_temperature;BMP_pressure;BME280_temperature;BME280_humidity;BME280_pressure;Samples;Min_cycle;Max_cycle;Signal;HPM_P1;HPM_P2
2023/07/30 00:00:41;;;;;;;14.05;5.85;;;16.30;99.90;;;;;;5070356;28;20040;-51
2023/07/30 00:03:06;;;;;;;7.65;3.80;;;16.30;99.90;;;;;;5069992;28;20085;-48
2023/07/30 00:05:32;;;;;;;12.85;5.72;;;16.30;99.90;;;;;;5070404;28;20047;-49
2023/07/30 00:07:57;;;;;;;9.85;4.65;;;16.30;99.90;;;;;;5070081;28;20036;-49
2023/07/30 00:10:23;;;;;;;11.93;4.65;;;16.20;99.90;;;;;;5068990;28;20087;-49
2023/07/30 00:12:49;;;;;;;10.65;4.03;;;16.20;99.90;;;;;;5070384;28;20044;-48
2023/07/30 00:15:14;;;;;;;7.32;3.63;;;16.20;99.90;;;;;;5069962;28;20048;-49
2023/07/30 00:17:40;;;;;;;8.80;3.75;;;16.20;99.90;;;;;;5070019;28;20043;-50
2023/07/30 00:20:07;;;;;;;7.50;3.42;;;16.10;99.90;;;;;;5069996;28;20028;-51
2023/07/30 00:22:33;;;;;;;10.80;3.95;;;16.10;99.90;;;;;;5070387;28;20040;-48
2023/07/30 00:24:59;;;;;;;9.43;4.07;;;16.10;99.90;;;;;;5070368;28;20124;-48
2023/07/30 00:27:24;;;;;;;13.10;4.90;;;16.00;99.90;;;;;;5069849;28;20040;-49
2023/07/30 00:29:50;;;;;;;11.02;4.05;;;16.00;99.90;;;;;;5070017;28;20464;-51
2023/07/30 00:32:16;;;;;;;14.40;5.35;;;16.00;99.90;;;;;;5070012;28;20595;-48
2023/07/30 00:34:43;;;;;;;11.43;4.05;;;16.00;99.90;;;;;;5068743;28;20105;-51
2023/07/30 00:37:08;;;;;;;;;;;15.90;99.90;;;;;;5070289;28;20083;-50
2023/07/30 00:39:35;;;;;;;12.05;4.20;;;15.90;99.90;;;;;;5070109;28;19916;-48
2023/07/30 00:42:00;;;;;;;15.10;4.53;;;15.90;99.90;;;;;;5069964;28;20198;-49
2023/07/30 00:44:26;;;;;;;11.18;3.58;;;15.90;99.90;;;;;;5069765;28;20104;-51
2023/07/30 00:46:52;;;;;;;13.48;3.85;;;15.80;99.90;;;;;;5069384;28;20059;-48
2023/07/30 00:49:18;;;;;;;;;;;15.80;99.90;;;;;;5070406;28;20037;-49
2023/07/30 00:51:44;;;;;;;11.45;4.22;;;15.80;99.90;;;;;;5069816;28;19916;-49
2023/07/30 00:54:11;;;;;;;12.73;4.05;;;15.80;99.90;;;;;;5069815;28;20393;-49
2023/07/30 00:56:36;;;;;;;17.75;4.25;;;15.70;99.90;;;;;;5069570;28;20446;-48
2023/07/30 00:59:02;;;;;;;11.55;3.65;;;15.70;99.90;;;;;;5069322;28;20083;-48
2023/07/30 01:01:30;;;;;;;14.82;4.10;;;15.70;99.90;;;;;;5069318;28;21176;-50
2023/07/30 01:03:56;;;;;;;8.43;3.42;;;15.60;99.90;;;;;;5064087;28;20062;-48
2023/07/30 01:06:21;;;;;;;15.07;4.57;;;15.60;99.90;;;;;;5069254;28;20037;-48
2023/07/30 01:08:47;;;;;;;11.05;3.55;;;15.60;99.90;;;;;;5069434;28;20064;-51
2023/07/30 01:11:14;;;;;;;;;;;15.50;99.90;;;;;;5069972;28;20037;-49
2023/07/30 01:13:41;;;;;;;17.00;3.20;;;15.60;99.90;;;;;;5069386;28;20381;-48
2023/07/30 01:16:07;;;;;;;16.55;3.60;;;15.50;99.90;;;;;;5069747;28;20032;-49
2023/07/30 01:18:33;;;;;;;12.95;3.22;;;15.50;99.90;;;;;;5069511;28;20041;-52
2023/07/30 01:20:59;;;;;;;17.20;4.03;;;15.50;99.90;;;;;;5069571;28;20098;-48
2023/07/30 01:23:26;;;;;;;15.98;3.25;;;15.50;99.90;;;;;;5070188;28;20053;-53
2023/07/30 01:26:20;;;;;;;;;;;15.40;99.90;;;;;;5070322;28;20041;-51
2023/07/30 01:28:49;;;;;;;17.17;3.90;;;15.40;99.90;;;;;;5051972;28;19945;-48
2023/07/30 01:31:17;;;;;;;10.75;3.08;;;15.40;99.90;;;;;;5069590;28;20044;-48
2023/07/30 01:33:46;;;;;;;9.00;2.67;;;15.40;99.90;;;;;;5069518;28;20398;-48
2023/07/30 01:36:15;;;;;;;9.95;3.25;;;15.40;99.90;;;;;;5069267;28;20035;-51
2023/07/30 01:38:42;;;;;;;14.43;2.70;;;15.30;99.90;;;;;;5068632;28;20041;-53
2023/07/30 01:41:08;;;;;;;14.07;2.75;;;15.30;99.90;;;;;;5069460;28;20101;-50
2023/07/30 01:43:34;;;;;;;11.05;3.83;;;15.30;99.90;;;;;;5069754;28;20028;-50
2023/07/30 01:46:00;;;;;;;14.00;3.33;;;15.30;99.90;;;;;;5068426;28;20501;-48
2023/07/30 01:48:25;;;;;;;10.20;2.67;;;15.30;99.90;;;;;;5068884;28;20108;-48
2023/07/30 01:50:51;;;;;;;10.85;3.33;;;15.30;99.90;;;;;;5069368;28;20429;-48
2023/07/30 01:53:17;;;;;;;12.63;3.30;;;15.20;99.90;;;;;;5068773;28;20516;-51
2023/07/30 01:55:46;;;;;;;7.78;2.58;;;15.20;99.90;;;;;;5069140;28;20024;-48
2023/07/30 01:58:13;;;;;;;13.13;2.78;;;15.30;99.90;;;;;;5067823;28;20040;-49
2023/07/30 02:00:39;;;;;;;8.32;2.35;;;15.20;99.90;;;;;;5069163;28;20379;-48
2023/07/30 02:03:05;;;;;;;9.65;2.30;;;15.20;99.90;;;;;;5070859;28;20051;-48
2023/07/30 02:05:30;;;;;;;13.48;2.10;;;15.10;99.90;;;;;;5073102;28;20047;-48
2023/07/30 02:07:56;;;;;;;11.65;2.15;;;15.10;99.90;;;;;;5071468;28;20032;-48
2023/07/30 02:10:21;;;;;;;8.77;1.90;;;15.10;99.90;;;;;;5072268;28;20398;-51
2023/07/30 02:12:47;;;;;;;14.38;2.45;;;15.10;99.90;;;;;;5065577;28;20346;-48
2023/07/30 02:15:12;;;;;;;9.60;2.20;;;15.10;99.90;;;;;;5086787;28;20032;-48
2023/07/30 02:17:38;;;;;;;9.57;2.65;;;15.00;99.90;;;;;;5072102;28;20501;-51
2023/07/30 02:20:04;;;;;;;9.88;3.03;;;15.00;99.90;;;;;;5071863;28;20059;-48
2023/07/30 02:22:30;;;;;;;3.95;2.13;;;15.00;99.90;;;;;;5070843;28;20068;-48
2023/07/30 02:24:57;;;;;;;11.82;2.22;;;14.90;99.90;;;;;;5072339;28;20071;-48
2023/07/30 02:27:22;;;;;;;11.70;1.92;;;14.90;99.90;;;;;;5072153;28;20596;-48
2023/07/30 02:29:48;;;;;;;9.00;2.58;;;14.90;99.90;;;;;;5072391;28;20131;-50
2023/07/30 02:32:14;;;;;;;9.13;2.85;;;14.90;99.90;;;;;;5072250;28;20482;-48
2023/07/30 02:34:39;;;;;;;12.52;2.28;;;14.80;99.90;;;;;;5072697;28;20511;-48
2023/07/30 02:37:05;;;;;;;6.13;1.88;;;14.80;99.90;;;;;;5071237;28;20082;-50
2023/07/30 02:39:31;;;;;;;8.30;2.47;;;14.80;99.90;;;;;;5072419;28;20036;-48
2023/07/30 02:41:56;;;;;;;9.50;2.53;;;14.80;99.90;;;;;;5072250;28;20033;-50
2023/07/30 02:44:22;;;;;;;9.25;2.63;;;14.70;99.90;;;;;;5072068;28;20656;-48
2023/07/30 02:46:47;;;;;;;10.32;3.47;;;14.70;99.90;;;;;;5071622;28;20064;-48
2023/07/30 02:49:13;;;;;;;7.50;3.03;;;14.70;99.90;;;;;;5071837;28;20039;-48
2023/07/30 02:51:38;;;;;;;15.98;3.00;;;14.70;99.90;;;;;;5071608;28;20044;-49
2023/07/30 02:54:05;;;;;;;12.00;3.28;;;14.70;99.90;;;;;;5071967;28;20043;-50
2023/07/30 02:56:31;;;;;;;8.80;3.15;;;14.60;99.90;;;;;;5071641;28;20125;-48
2023/07/30 02:58:58;;;;;;;9.88;2.83;;;14.60;99.90;;;;;;5071825;28;20072;-51
2023/07/30 03:01:24;;;;;;;12.65;2.63;;;14.60;99.90;;;;;;5071788;28;20111;-48
2023/07/30 03:03:49;;;;;;;10.27;2.75;;;14.60;99.90;;;;;;5072001;28;20071;-48
2023/07/30 03:06:16;;;;;;;14.57;3.40;;;14.60;99.90;;;;;;5071196;28;20040;-50
2023/07/30 03:08:43;;;;;;;11.15;4.32;;;14.50;99.90;;;;;;5071346;28;20115;-48
2023/07/30 03:11:08;;;;;;;7.03;3.08;;;14.50;99.90;;;;;;5071396;28;20051;-51
2023/07/30 03:13:34;;;;;;;9.05;3.67;;;14.50;99.90;;;;;;5066986;28;20033;-48
2023/07/30 03:16:00;;;;;;;11.73;3.22;;;14.50;99.90;;;;;;5071294;28;20568;-48
2023/07/30 03:18:25;;;;;;;16.38;3.55;;;14.50;99.90;;;;;;5071435;28;20037;-51
2023/07/30 03:20:51;;;;;;;10.07;4.72;;;14.50;99.90;;;;;;5070964;28;20607;-49
2023/07/30 03:23:16;;;;;;;14.95;4.53;;;14.50;99.90;;;;;;5071464;28;20402;-48
2023/07/30 03:25:42;;;;;;;13.23;4.15;;;14.50;99.90;;;;;;5071461;28;20503;-48
2023/07/30 03:28:08;;;;;;;13.73;4.75;;;14.40;99.90;;;;;;5069572;28;20240;-48
2023/07/30 03:30:33;;;;;;;12.60;3.85;;;14.40;99.90;;;;;;5069271;28;20032;-47
2023/07/30 03:32:59;;;;;;;12.82;3.55;;;14.40;99.90;;;;;;5071170;28;20571;-48
2023/07/30 03:35:24;;;;;;;13.20;3.40;;;14.40;99.90;;;;;;5070439;28;20520;-48
2023/07/30 03:37:51;;;;;;;13.65;4.05;;;14.40;99.90;;;;;;5070458;28;20044;-47
2023/07/30 03:40:16;;;;;;;;;;;14.40;99.90;;;;;;5071199;28;20042;-47
2023/07/30 03:42:42;;;;;;;13.40;4.30;;;14.40;99.90;;;;;;5071175;28;19936;-48
2023/07/30 03:45:08;;;;;;;10.32;3.78;;;14.40;99.90;;;;;;5070768;28;20040;-49
2023/07/30 03:47:33;;;;;;;10.43;4.43;;;14.40;99.90;;;;;;5070445;28;20067;-51
2023/07/30 03:49:59;;;;;;;12.35;4.28;;;14.40;99.90;;;;;;5070336;28;20122;-48
2023/07/30 03:52:24;;;;;;;10.07;4.28;;;14.40;99.90;;;;;;5070994;28;20040;-48
2023/07/30 03:54:50;;;;;;;11.60;4.22;;;14.40;99.90;;;;;;5071143;28;20033;-48
2023/07/30 03:57:16;;;;;;;11.98;3.75;;;14.40;99.90;;;;;;5070560;28;20037;-50
2023/07/30 03:59:41;;;;;;;11.82;5.05;;;14.40;99.90;;;;;;5070565;28;20607;-47
2023/07/30 04:02:07;;;;;;;12.63;4.70;;;14.40;99.90;;;;;;5070941;28;20040;-48
2023/07/30 04:04:32;;;;;;;11.82;4.45;;;14.40;99.90;;;;;;5070135;28;20081;-47
2023/07/30 04:06:58;;;;;;;13.10;4.28;;;14.40;99.90;;;;;;5070223;28;20033;-51
2023/07/30 04:09:23;;;;;;;15.65;3.95;;;14.40;99.90;;;;;;5070697;28;21193;-51
2023/07/30 04:11:49;;;;;;;16.70;4.75;;;14.40;99.90;;;;;;5070601;28;20031;-47
2023/07/30 04:14:14;;;;;;;16.77;5.07;;;14.40;99.90;;;;;;5065216;28;20558;-49
2023/07/30 04:16:40;;;;;;;13.50;3.85;;;14.40;99.90;;;;;;5070002;28;20040;-48
2023/07/30 04:19:06;;;;;;;9.18;3.75;;;14.40;99.90;;;;;;5069495;28;20040;-50
2023/07/30 04:21:31;;;;;;;17.38;5.30;;;14.40;99.90;;;;;;5068950;28;20508;-48
2023/07/30 04:23:57;;;;;;;17.50;5.18;;;14.40;99.90;;;;;;5070601;28;20036;-48
2023/07/30 04:26:22;;;;;;;12.38;4.32;;;14.40;99.90;;;;;;5069752;28;20032;-48
2023/07/30 04:28:48;;;;;;;12.35;4.90;;;14.40;99.90;;;;;;5069833;28;20032;-48
2023/07/30 04:31:14;;;;;;;11.52;3.67;;;14.40;99.90;;;;;;5069493;28;20401;-48
2023/07/30 04:33:39;;;;;;;10.70;3.97;;;14.40;99.90;;;;;;5069405;28;20094;-48
2023/07/30 04:36:06;;;;;;;15.32;4.80;;;14.40;99.90;;;;;;5069428;28;20564;-50
2023/07/30 04:38:32;;;;;;;11.77;4.53;;;14.40;99.90;;;;;;5061350;28;20036;-51
2023/07/30 04:40:58;;;;;;;12.10;4.28;;;14.50;99.90;;;;;;5070089;28;20031;-47
2023/07/30 04:43:24;;;;;;;20.60;5.55;;;14.50;99.90;;;;;;5070085;28;20328;-48
2023/07/30 04:45:49;;;;;;;12.40;4.57;;;14.50;99.90;;;;;;5070216;28;20036;-48
2023/07/30 04:48:15;;;;;;;11.05;4.13;;;14.50;99.90;;;;;;5067900;28;20040;-48
2023/07/30 04:50:41;;;;;;;14.05;4.22;;;14.60;99.90;;;;;;5070134;28;20032;-51
2023/07/30 04:53:08;;;;;;;12.48;4.40;;;14.60;99.90;;;;;;5069944;28;20047;-48
2023/07/30 04:55:34;;;;;;;13.32;4.55;;;14.60;99.90;;;;;;5069772;28;20037;-47
2023/07/30 04:57:59;;;;;;;10.10;3.95;;;14.60;99.90;;;;;;5069386;28;20041;-49
2023/07/30 05:00:25;;;;;;;12.90;4.20;;;14.70;99.90;;;;;;5068386;28;20044;-49
2023/07/30 05:02:51;;;;;;;17.33;4.60;;;14.70;99.90;;;;;;5069413;28;20386;-50
2023/07/30 05:05:16;;;;;;;16.70;4.65;;;14.70;99.90;;;;;;5069887;28;20036;-50
2023/07/30 05:07:42;;;;;;;14.45;4.65;;;14.80;99.90;;;;;;5069608;28;20505;-47
2023/07/30 05:10:10;;;;;;;14.68;4.55;;;14.80;99.90;;;;;;5069711;28;20511;-49
2023/07/30 05:12:36;;;;;;;19.42;4.70;;;14.80;99.90;;;;;;5069714;28;20036;-48
2023/07/30 05:15:02;;;;;;;15.40;5.40;;;14.80;99.90;;;;;;5069598;28;20543;-51
2023/07/30 05:17:27;;;;;;;14.27;4.40;;;14.90;99.90;;;;;;5068782;28;20047;-48
2023/07/30 05:19:53;;;;;;;18.77;5.35;;;14.90;99.90;;;;;;5069733;28;20032;-48
2023/07/30 05:22:19;;;;;;;14.75;4.60;;;15.00;99.90;;;;;;5064703;28;20071;-51
2023/07/30 05:24:44;;;;;;;12.13;4.13;;;15.00;99.90;;;;;;5069737;28;20047;-49
2023/07/30 05:27:10;;;;;;;17.45;5.90;;;15.00;99.90;;;;;;5069125;28;20039;-48
2023/07/30 05:29:35;;;;;;;22.90;5.55;;;15.00;99.90;;;;;;5069928;28;20044;-48
2023/07/30 05:32:01;;;;;;;22.23;6.43;;;15.00;99.90;;;;;;5069102;28;20032;-49
2023/07/30 05:34:27;;;;;;;14.07;4.90;;;15.10;99.90;;;;;;5069671;28;20042;-51
2023/07/30 05:36:52;;;;;;;15.32;5.75;;;15.10;99.90;;;;;;5069478;28;20047;-48
2023/07/30 05:39:18;;;;;;;26.33;6.22;;;15.10;99.90;;;;;;5073575;28;20040;-48
2023/07/30 05:41:43;;;;;;;25.42;5.28;;;15.20;99.90;;;;;;5073358;28;20103;-48
2023/07/30 05:44:09;;;;;;;19.50;5.68;;;15.20;99.90;;;;;;5072898;28;20089;-48
2023/07/30 05:46:34;;;;;;;14.27;5.53;;;15.20;99.90;;;;;;5072363;28;20071;-48
2023/07/30 05:49:00;;;;;;;14.88;6.00;;;15.20;99.90;;;;;;5069343;28;20048;-48
2023/07/30 05:51:26;;;;;;;21.13;5.75;;;15.30;99.90;;;;;;5064846;28;20036;-51
2023/07/30 05:53:51;;;;;;;24.30;5.97;;;15.30;99.90;;;;;;5073281;28;20036;-52
2023/07/30 05:56:18;;;;;;;18.52;6.15;;;15.30;99.90;;;;;;5070868;28;20041;-48
2023/07/30 05:58:44;;;;;;;16.02;5.40;;;15.30;99.90;;;;;;5072470;28;20490;-48
2023/07/30 06:01:11;;;;;;;16.83;6.45;;;15.40;99.90;;;;;;5073150;28;20037;-48
2023/07/30 06:03:37;;;;;;;21.05;6.68;;;15.50;99.90;;;;;;5072448;28;20405;-48
2023/07/30 06:06:02;;;;;;;21.58;6.75;;;15.50;99.90;;;;;;5073044;28;20044;-50
2023/07/30 06:08:29;;;;;;;22.77;5.30;;;15.50;99.90;;;;;;5072469;28;20040;-48
2023/07/30 06:10:55;;;;;;;18.75;7.20;;;15.60;99.90;;;;;;5071767;28;20086;-50
2023/07/30 06:13:20;;;;;;;24.38;6.63;;;15.60;99.90;;;;;;5072278;28;20488;-48
2023/07/30 06:15:46;;;;;;;26.35;6.45;;;15.70;99.90;;;;;;5072772;28;20037;-48
2023/07/30 06:18:12;;;;;;;25.35;7.25;;;15.70;99.90;;;;;;5072204;28;20045;-48
2023/07/30 06:20:37;;;;;;;19.58;6.35;;;15.70;99.90;;;;;;5072546;28;20038;-49
2023/07/30 06:23:03;;;;;;;23.42;7.85;;;15.80;99.90;;;;;;5071211;28;20039;-49
2023/07/30 06:25:30;;;;;;;23.77;6.03;;;15.90;99.90;;;;;;5072851;28;20412;-48
2023/07/30 06:27:58;;;;;;;;;;;15.90;99.90;;;;;;5072430;28;20059;-48
2023/07/30 06:30:24;;;;;;;23.30;7.07;;;15.90;99.90;;;;;;5072172;28;19939;-51
2023/07/30 06:32:50;;;;;;;29.02;6.80;;;15.90;99.90;;;;;;5072634;28;20074;-48
2023/07/30 06:35:16;;;;;;;24.92;8.15;;;16.00;99.90;;;;;;5052863;28;20059;-47
2023/07/30 06:37:41;;;;;;;28.30;7.32;;;16.10;99.90;;;;;;5052258;28;20041;-47
2023/07/30 06:40:07;;;;;;;25.85;8.10;;;16.10;99.90;;;;;;5071856;28;20040;-47
2023/07/30 06:42:33;;;;;;;;;;;16.20;99.90;;;;;;5072722;28;20482;-47
2023/07/30 06:44:59;;;;;;;22.63;8.15;;;16.30;99.90;;;;;;5071526;28;19920;-48
2023/07/30 06:47:24;;;;;;;25.38;7.35;;;16.40;99.90;;;;;;5071852;28;20040;-49
2023/07/30 06:49:50;;;;;;;23.55;7.90;;;16.40;99.90;;;;;;5071747;28;20062;-47
2023/07/30 06:52:15;;;;;;;26.30;8.20;;;16.50;99.90;;;;;;5072490;28;20044;-47
2023/07/30 06:54:41;;;;;;;24.92;8.55;;;16.50;99.90;;;;;;5071685;28;20040;-48
2023/07/30 06:57:07;;;;;;;21.80;8.50;;;16.50;99.90;;;;;;5071649;28;20479;-48
2023/07/30 06:59:33;;;;;;;25.05;8.52;;;16.60;99.90;;;;;;5071165;28;20029;-52
2023/07/30 07:01:59;;;;;;;26.00;8.70;;;16.60;99.90;;;;;;5072177;28;20106;-47
2023/07/30 07:04:25;;;;;;;26.50;9.80;;;16.70;99.90;;;;;;5071751;28;20036;-47
2023/07/30 07:06:51;;;;;;;30.23;9.43;;;16.70;99.90;;;;;;5071574;28;20177;-50
2023/07/30 07:09:17;;;;;;;30.42;9.02;;;16.70;99.90;;;;;;5068800;28;20076;-51
2023/07/30 07:11:43;;;;;;;27.88;9.20;;;16.70;99.90;;;;;;5071353;28;20040;-46
2023/07/30 07:14:09;;;;;;;29.77;8.23;;;16.80;99.90;;;;;;5070053;28;20044;-47
2023/07/30 07:16:34;;;;;;;34.33;8.68;;;16.90;99.90;;;;;;5071508;28;20058;-48
2023/07/30 07:19:00;;;;;;;21.52;8.85;;;17.00;99.90;;;;;;5070105;28;20047;-45
2023/07/30 07:21:26;;;;;;;27.88;8.48;;;17.10;99.90;;;;;;5071472;28;20024;-47
2023/07/30 07:23:51;;;;;;;;;;;17.20;99.90;;;;;;5072079;28;20413;-46
2023/07/30 07:26:17;;;;;;;30.13;9.10;;;17.20;99.90;;;;;;5071517;28;19917;-47
2023/07/30 07:28:43;;;;;;;29.33;9.10;;;17.30;99.90;;;;;;5070485;28;20061;-48
2023/07/30 07:31:08;;;;;;;23.30;8.82;;;17.40;99.90;;;;;;5071698;28;20037;-47
2023/07/30 07:33:34;;;;;;;29.58;9.68;;;17.40;99.90;;;;;;5069943;28;20075;-47
2023/07/30 07:36:07;;;;;;;25.27;9.52;;;17.40;99.90;;;;;;5069570;28;20488;-47
2023/07/30 07:38:34;;;;;;;21.38;8.60;;;17.50;99.90;;;;;;5071154;28;20115;-47
2023/07/30 07:41:01;;;;;;;22.10;8.82;;;17.50;99.90;;;;;;5069229;28;20044;-46
2023/07/30 07:43:26;;;;;;;29.60;10.32;;;17.50;99.90;;;;;;5070397;28;20383;-46
2023/07/30 07:45:52;;;;;;;27.20;8.88;;;17.50;99.90;;;;;;5070994;28;20047;-47
2023/07/30 07:48:18;;;;;;;25.45;8.07;;;17.50;99.90;;;;;;5070363;28;20608;-49
2023/07/30 07:50:43;;;;;;;23.02;7.57;;;17.50;99.90;;;;;;5065410;28;20036;-46
2023/07/30 07:53:09;;;;;;;23.70;7.15;;;17.50;99.90;;;;;;5069918;28;20456;-48
2023/07/30 07:55:35;;;;;;;23.40;6.93;;;17.50;99.90;;;;;;5058727;28;20028;-47
2023/07/30 07:58:00;;;;;;;20.10;6.32;;;17.50;99.90;;;;;;5060800;28;20533;-50
2023/07/30 08:00:26;;;;;;;19.38;6.18;;;17.50;99.90;;;;;;5057781;28;20028;-47
2023/07/30 08:02:51;;;;;;;28.30;7.05;;;17.50;99.90;;;;;;5058805;28;20060;-50
2023/07/30 08:05:19;;;;;;;18.42;7.65;;;17.60;99.90;;;;;;5069950;28;20044;-47
2023/07/30 08:07:46;;;;;;;30.02;9.27;;;17.60;99.90;;;;;;5064744;28;20044;-47
2023/07/30 08:10:12;;;;;;;30.25;8.48;;;17.70;99.90;;;;;;5059163;28;20551;-49
2023/07/30 08:12:37;;;;;;;22.40;7.75;;;17.90;99.90;;;;;;5055348;28;20044;-47
2023/07/30 08:15:04;;;;;;;23.52;8.65;;;18.00;99.90;;;;;;5065771;28;20082;-47
2023/07/30 08:17:29;;;;;;;24.58;7.25;;;18.00;99.90;;;;;;5059927;28;20049;-47
2023/07/30 08:19:55;;;;;;;25.40;7.63;;;18.10;99.90;;;;;;5064619;28;20063;-47
2023/07/30 08:22:20;;;;;;;23.70;8.55;;;18.10;99.90;;;;;;5060546;28;20041;-47
2023/07/30 08:24:46;;;;;;;19.95;6.93;;;18.20;99.90;;;;;;5058059;28;20108;-51
2023/07/30 08:27:11;;;;;;;17.65;7.53;;;18.20;99.90;;;;;;5069625;28;20036;-46
2023/07/30 08:29:37;;;;;;;22.20;6.88;;;18.30;99.90;;;;;;5058562;28;20076;-48
2023/07/30 08:32:03;;;;;;;24.77;7.10;;;18.50;99.90;;;;;;5070351;28;20032;-47
2023/07/30 08:34:29;;;;;;;;;;;18.70;99.90;;;;;;5067959;28;20386;-48
2023/07/30 08:36:54;;;;;;;19.20;6.32;;;18.80;99.90;;;;;;5058388;28;19924;-47
2023/07/30 08:39:20;;;;;;;21.08;7.00;;;19.00;99.90;;;;;;5066517;28;20033;-47
2023/07/30 08:41:46;;;;;;;28.45;6.32;;;19.10;99.90;;;;;;5049855;28;20258;-47
2023/07/30 08:44:12;;;;;;;19.13;4.90;;;19.10;99.90;;;;;;5059401;28;20518;-47
2023/07/30 08:46:38;;;;;;;21.67;4.85;;;19.00;99.90;;;;;;5063156;28;20044;-48
2023/07/30 08:49:04;;;;;;;16.77;5.43;;;18.90;99.90;;;;;;5061767;28;20044;-47
2023/07/30 08:51:31;;;;;;;;;;;18.80;99.90;;;;;;5061412;28;20032;-48
2023/07/30 08:53:58;;;;;;;20.35;5.55;;;18.80;99.90;;;;;;5058316;28;19916;-47
2023/07/30 08:56:23;;;;;;;22.02;6.22;;;18.80;99.90;;;;;;5058346;28;20144;-49
2023/07/30 08:58:51;;;;;;;20.98;6.22;;;18.80;99.90;;;;;;5064841;28;20119;-49
2023/07/30 09:01:18;;;;;;;21.95;6.55;;;18.70;99.90;;;;;;5069697;28;20033;-47
2023/07/30 09:03:44;;;;;;;18.05;7.45;;;18.70;99.90;;;;;;5060077;28;20090;-48
2023/07/30 09:06:10;;;;;;;21.42;5.97;;;18.70;99.90;;;;;;5068922;28;20040;-47
2023/07/30 09:08:35;;;;;;;16.02;5.78;;;18.80;99.90;;;;;;5065047;28;20036;-48
2023/07/30 09:11:11;;;;;;;16.20;5.57;;;18.90;99.90;;;;;;5068366;28;20055;-48
2023/07/30 09:13:41;;;;;;;14.63;5.88;;;18.90;99.90;;;;;;5065664;28;20110;-47
2023/07/30 09:16:14;;;;;;;17.58;5.85;;;18.90;99.90;;;;;;5064312;28;20037;-48
2023/07/30 09:18:44;;;;;;;14.73;5.63;;;19.00;99.90;;;;;;5065184;28;20070;-48
2023/07/30 09:21:13;;;;;;;19.10;6.13;;;19.00;99.90;;;;;;5056624;28;20041;-49
2023/07/30 09:23:43;;;;;;;24.15;7.22;;;18.90;99.90;;;;;;5071167;28;20444;-50
2023/07/30 09:30:01;;;;;;;16.48;5.22;;;19.20;99.90;;;;;;5099675;27;20339;-49
2023/07/30 09:32:31;;;;;;;18.10;4.75;;;19.30;99.90;;;;;;5077300;28;20044;-49
2023/07/30 09:35:08;;;;;;;12.90;4.00;;;19.30;99.90;;;;;;5085161;28;20028;-51
2023/07/30 09:37:37;;;;;;;17.73;4.80;;;19.40;99.90;;;;;;5084161;28;20050;-50
2023/07/30 09:40:05;;;;;;;11.13;3.30;;;19.40;99.90;;;;;;5081610;28;20036;-52
2023/07/30 09:42:33;;;;;;;16.38;4.50;;;19.20;99.90;;;;;;5075981;28;20040;-50
2023/07/30 09:45:00;;;;;;;17.23;4.57;;;19.00;99.90;;;;;;5087266;28;20048;-49
2023/07/30 09:47:30;;;;;;;8.75;3.30;;;18.80;99.90;;;;;;5080258;28;20040;-51
2023/07/30 09:49:56;;;;;;;20.38;5.40;;;18.60;99.90;;;;;;5087090;28;20062;-49
2023/07/30 09:52:22;;;;;;;15.23;4.28;;;18.50;99.90;;;;;;5083092;28;20523;-50
2023/07/30 09:54:49;;;;;;;20.65;6.00;;;18.50;99.90;;;;;;5079349;28;20572;-51
2023/07/30 09:57:15;;;;;;;18.88;6.22;;;18.70;99.90;;;;;;5080468;28;20028;-50
2023/07/30 09:59:41;;;;;;;21.38;6.05;;;19.00;99.90;;;;;;5084047;28;20036;-52
2023/07/30 10:02:10;;;;;;;12.27;4.70;;;19.00;99.90;;;;;;5077841;28;20043;-49
2023/07/30 10:04:42;;;;;;;9.38;4.03;;;19.10;99.90;;;;;;5086004;28;20040;-52
2023/07/30 10:07:14;;;;;;;11.98;2.90;;;19.00;99.90;;;;;;5080677;28;20047;-51
2023/07/30 10:09:45;;;;;;;11.70;2.67;;;19.00;99.90;;;;;;5066877;28;20123;-54
2023/07/30 10:12:17;;;;;;;11.25;3.05;;;18.90;99.90;;;;;;5080418;28;20040;-49
2023/07/30 10:14:43;;;;;;;16.55;2.42;;;18.90;99.90;;;;;;5087188;28;20068;-50
2023/07/30 10:17:12;;;;;;;16.05;2.88;;;19.00;99.90;;;;;;5086550;28;20036;-49
2023/07/30 10:19:38;;;;;;;14.00;2.92;;;19.00;99.90;;;;;;5077204;28;20037;-50
2023/07/30 10:22:12;;;;;;;8.68;2.85;;;19.00;99.90;;;;;;5083270;28;20497;-49
2023/07/30 10:24:54;;;;;;;7.00;1.67;;;19.10;99.90;;;;;;5068507;28;20057;-51
2023/07/30 10:27:24;;;;;;;8.02;2.13;;;19.20;99.90;;;;;;5079583;28;20079;-51
2023/07/30 10:30:11;;;;;;;8.70;2.00;;;19.40;99.90;;;;;;5084729;28;20490;-52
2023/07/30 10:33:09;;;;;;;7.88;1.80;;;19.60;99.90;;;;;;5084083;28;20032;-50
2023/07/30 10:35:40;;;;;;;7.13;1.25;;;19.80;99.90;;;;;;5065982;28;20551;-50
2023/07/30 10:38:35;;;;;;;10.15;1.67;;;19.90;99.90;;;;;;5076435;28;20123;-50
2023/07/30 10:41:01;;;;;;;10.40;1.48;;;19.90;99.90;;;;;;5064958;28;20055;-50
2023/07/30 10:43:31;;;;;;;11.00;1.70;;;19.90;99.90;;;;;;5072933;28;20048;-51
2023/07/30 10:45:57;;;;;;;9.73;1.50;;;20.00;99.90;;;;;;5072824;28;20045;-51
2023/07/30 10:48:38;;;;;;;7.25;1.08;;;20.10;99.90;;;;;;5069309;28;20470;-53
2023/07/30 10:51:06;;;;;;;10.68;1.42;;;20.30;99.90;;;;;;5071781;28;20834;-49
2023/07/30 10:53:32;;;;;;;10.35;1.48;;;20.50;99.90;;;;;;5069931;28;20052;-49
2023/07/30 10:56:01;;;;;;;6.93;1.23;;;20.60;99.90;;;;;;5052577;28;20045;-50
2023/07/30 10:58:29;;;;;;;6.13;1.50;;;20.60;99.90;;;;;;5065870;28;20083;-49
2023/07/30 11:00:55;;;;;;;5.35;0.85;;;20.60;99.90;;;;;;5052314;28;20116;-51
2023/07/30 11:03:20;;;;;;;8.43;1.00;;;20.50;99.90;;;;;;5058792;28;20120;-53
2023/07/30 11:05:47;;;;;;;;;;;20.30;99.90;;;;;;5070018;28;20072;-49
2023/07/30 11:08:12;;;;;;;7.93;1.35;;;20.10;99.90;;;;;;5071351;28;19924;-52
2023/07/30 11:10:46;;;;;;;5.57;0.80;;;20.10;99.90;;;;;;5054956;28;20037;-49
2023/07/30 11:13:13;;;;;;;5.97;0.98;;;20.10;99.90;;;;;;5069922;28;20086;-49
2023/07/30 11:15:42;;;;;;;6.43;1.25;;;20.10;99.90;;;;;;5054878;28;20429;-51
2023/07/30 11:18:08;;;;;;;5.70;0.75;;;20.30;99.90;;;;;;5056826;28;20437;-49
2023/07/30 11:20:34;;;;;;;;;;;20.40;99.90;;;;;;5072636;28;20044;-49
2023/07/30 11:23:00;;;;;;;7.50;1.23;;;20.50;99.90;;;;;;5072221;28;20388;-49
2023/07/30 11:25:25;;;;;;;7.85;0.70;;;20.70;99.90;;;;;;5072440;28;20474;-50
2023/07/30 11:27:51;;;;;;;;;;;20.80;99.90;;;;;;5065828;28;20068;-51
2023/07/30 11:30:18;;;;;;;8.35;1.25;;;20.80;99.90;;;;;;5051533;28;20015;-51
2023/07/30 11:32:47;;;;;;;9.02;1.40;;;20.70;99.90;;;;;;5052061;28;20406;-49
2023/07/30 11:35:14;;;;;;;6.63;1.13;;;20.70;99.90;;;;;;5056866;28;20074;-50
2023/07/30 11:37:42;;;;;;;7.65;1.00;;;20.60;99.90;;;;;;5065973;28;20052;-49
2023/07/30 11:40:10;;;;;;;5.90;1.23;;;20.70;99.90;;;;;;5066931;28;20111;-50
2023/07/30 11:42:39;;;;;;;6.82;0.70;;;20.70;99.90;;;;;;5069998;28;20048;-50
2023/07/30 11:45:18;;;;;;;7.93;0.85;;;20.80;99.90;;;;;;5066940;28;20381;-50
2023/07/30 11:47:43;;;;;;;3.72;0.75;;;20.80;99.90;;;;;;5070406;28;20056;-51
2023/07/30 11:50:09;;;;;;;;;;;20.80;99.90;;;;;;5067342;28;20036;-52
2023/07/30 11:52:34;;;;;;;3.45;0.95;;;20.80;99.90;;;;;;5070439;28;19916;-50
2023/07/30 11:55:03;;;;;;;;;;;20.70;99.90;;;;;;5067782;28;20072;-50
2023/07/30 11:57:35;;;;;;;8.80;0.80;;;20.70;99.90;;;;;;5060912;28;20411;-50
2023/07/30 12:00:02;;;;;;;7.03;0.82;;;20.70;99.90;;;;;;5071139;28;20115;-49
2023/07/30 12:02:29;;;;;;;4.65;1.05;;;20.80;99.90;;;;;;5071583;28;20051;-50
2023/07/30 12:04:54;;;;;;;7.03;1.20;;;20.90;99.90;;;;;;5070622;28;20383;-50
2023/07/30 12:07:24;;;;;;;;;;;20.90;99.90;;;;;;5054355;28;20043;-49
2023/07/30 12:09:49;;;;;;;7.45;0.95;;;20.90;99.90;;;;;;5065651;28;19920;-53
2023/07/30 12:12:15;;;;;;;;;;;20.90;99.90;;;;;;5071581;28;20040;-50
2023/07/30 12:14:46;;;;;;;7.93;1.13;;;21.00;99.90;;;;;;5057690;28;19952;-50
2023/07/30 12:17:12;;;;;;;6.82;0.80;;;21.00;99.90;;;;;;5051813;28;20033;-51
2023/07/30 12:19:37;;;;;;;;;;;21.10;99.90;;;;;;5063626;28;20039;-50
2023/07/30 12:22:03;;;;;;;8.63;0.80;;;21.10;99.90;;;;;;5071040;28;20278;-50
2023/07/30 12:24:29;;;;;;;;;;;21.00;99.90;;;;;;5060521;28;20047;-52
2023/07/30 12:26:54;;;;;;;13.10;1.00;;;21.00;99.90;;;;;;5055255;28;19951;-50
2023/07/30 12:29:20;;;;;;;;;;;21.00;99.90;;;;;;5064150;28;20557;-52
2023/07/30 12:31:46;;;;;;;4.72;0.55;;;20.90;99.90;;;;;;5070850;28;20324;-50
2023/07/30 12:34:12;;;;;;;;;;;20.80;99.90;;;;;;5068875;28;20072;-51
2023/07/30 12:36:37;;;;;;;7.20;0.82;;;20.70;99.90;;;;;;5067274;28;19964;-50
2023/07/30 12:39:03;;;;;;;4.90;0.73;;;20.50;99.90;;;;;;5069650;28;20076;-50
2023/07/30 12:41:28;;;;;;;;;;;20.60;99.90;;;;;;5070049;28;20467;-50
2023/07/30 12:43:59;;;;;;;4.72;0.63;;;20.70;99.90;;;;;;5070625;28;19922;-51
2023/07/30 12:46:27;;;;;;;6.03;0.73;;;20.80;99.90;;;;;;5059693;28;20044;-50